Celtic Warrior — 2IBU5 — position and weather

sailwx.info

Track history (hours):
 
Tides and Currents Weather Stations Pressure Air Temp Water Temp Dewpoint Dewpoint Depression Visibility Wind Speed Wind Dir Waves Ship Positions

Celtic Warrior

Last reported at 2018-Feb-24 03:16 UTC. Time now 2018-Feb-24 04:26 UTC.
Position N 51°22' W 003°36'.

Length 89 m; draft 3.8 m.

Type: Cargo ship. MMSI: 235108405.

Date/timePositionNaut miles runAvg speedWind from/ knotsBaromVisibWave heightAir tempDewpointWater temp
2018-Feb-24 03:16N 51°22' W 003°36'1014.3
2018-Feb-24 02:35N 51°20' W 003°20'112.6
2018-Feb-24 02:29N 51°20' W 003°18'612.4
2018-Feb-24 02:00N 51°23' W 003°11'714.4
2018-Feb-24 01:30N 51°26' W 003°00'713.7
2018-Feb-24 01:00N 51°29' W 002°50'5 9.3
2018-Feb-24 00:30N 51°30' W 002°43'0 0.4
2018-Feb-23 23:30N 51°30' W 002°42'0 0.0
2018-Feb-23 22:58N 51°30' W 002°42'0 0.0
2018-Feb-23 22:28N 51°30' W 002°42'0 0.0
2018-Feb-23 21:58N 51°30' W 002°42'0 0.0
2018-Feb-23 21:28N 51°30' W 002°42'0 0.0
2018-Feb-23 20:58N 51°30' W 002°42'0 0.0
2018-Feb-23 20:28N 51°30' W 002°42'0 0.0
2018-Feb-23 19:58N 51°30' W 002°42'0 0.0
2018-Feb-23 19:28N 51°30' W 002°42'0 0.0
2018-Feb-23 19:01N 51°30' W 002°42'0 0.0
2018-Feb-23 18:31N 51°30' W 002°42'0 0.0
2018-Feb-23 18:00N 51°30' W 002°42'0 0.0
2018-Feb-23 17:30N 51°30' W 002°42'0 0.0
2018-Feb-23 17:00N 51°30' W 002°42'0 0.0
2018-Feb-23 16:30N 51°30' W 002°42'0 0.0
2018-Feb-23 16:00N 51°30' W 002°42'0 0.0
2018-Feb-23 15:30N 51°30' W 002°42'0 0.0
2018-Feb-23 15:00N 51°30' W 002°42'0 0.0
2018-Feb-23 14:30N 51°30' W 002°42'0 0.0
2018-Feb-23 14:00N 51°30' W 002°42'0 0.0
2018-Feb-23 13:30N 51°30' W 002°42'0 0.0
2018-Feb-23 13:00N 51°30' W 002°42'0 0.0
2018-Feb-23 12:30N 51°30' W 002°42'0 0.0
2018-Feb-23 12:00N 51°30' W 002°42'0 0.0
2018-Feb-23 11:30N 51°30' W 002°42'0 0.0
2018-Feb-23 10:57N 51°30' W 002°42'0 0.0
2018-Feb-23 10:30N 51°30' W 002°42'0 0.0
2018-Feb-23 10:00N 51°30' W 002°42'0 0.0
2018-Feb-23 09:30N 51°30' W 002°42'0 0.0
2018-Feb-23 09:00N 51°30' W 002°42'0 0.0
2018-Feb-23 08:27N 51°30' W 002°42'0 0.0
2018-Feb-23 08:00N 51°30' W 002°42'0 0.0
2018-Feb-23 07:30N 51°30' W 002°42'0 0.0
2018-Feb-23 07:00N 51°30' W 002°42'0 0.0
2018-Feb-23 06:27N 51°30' W 002°42'0 0.0
2018-Feb-23 06:00N 51°30' W 002°42'0 0.0
2018-Feb-23 05:30N 51°30' W 002°42'0 0.0
2018-Feb-23 05:00N 51°30' W 002°42'0 0.0
2018-Feb-23 04:30N 51°30' W 002°42'0 0.0
2018-Feb-23 04:00N 51°30' W 002°42'0 0.0
2018-Feb-23 03:30N 51°30' W 002°42'0 0.0
2018-Feb-23 03:00N 51°30' W 002°42'0 0.0
2018-Feb-23 02:30N 51°30' W 002°42'0 0.0
2018-Feb-23 02:00N 51°30' W 002°42'0 0.0
2018-Feb-23 01:27N 51°30' W 002°42'0 0.0
2018-Feb-23 01:00N 51°30' W 002°42'0 0.0
2018-Feb-23 00:30N 51°30' W 002°42'0 0.0
2018-Feb-23 00:00N 51°30' W 002°42'0 0.0
2018-Feb-22 23:30N 51°30' W 002°42'0 0.0
2018-Feb-22 23:00N 51°30' W 002°42'0 0.0
2018-Feb-22 22:30N 51°30' W 002°42'0 0.0
2018-Feb-22 22:00N 51°30' W 002°42'0 0.7
2018-Feb-22 21:30N 51°30' W 002°43'0 0.7
2018-Feb-22 21:00N 51°30' W 002°43'5 9.1
2018-Feb-22 20:31N 51°29' W 002°50'714.0
2018-Feb-22 20:01N 51°26' W 003°00'714.2
2018-Feb-22 19:30N 51°21' W 003°09'4 8.2
2018-Feb-22 18:59N 51°21' W 003°16'2 3.1
2018-Feb-22 18:29N 51°21' W 003°18'5 9.5
2018-Feb-22 17:57N 51°22' W 003°26'612.4
2018-Feb-22 17:29N 51°22' W 003°35'712.0
2018-Feb-22 16:56N 51°23' W 003°46'611.3
2018-Feb-22 16:25N 51°24' W 003°55'2210.2
2018-Feb-22 14:16N 51°27' W 004°30'4 8.8
2018-Feb-22 13:51N 51°28' W 004°36'9 9.3
2018-Feb-22 12:50N 51°29' W 004°51'3 9.9
2018-Feb-22 12:30N 51°30' W 004°56'5 9.9
2018-Feb-22 12:00N 51°31' W 005°04'5 9.9
2018-Feb-22 11:30N 51°32' W 005°12'510.1
2018-Feb-22 11:00N 51°33' W 005°19'69 9.8
2018-Feb-22 03:58N 52°41' W 005°43'612.6
2018-Feb-22 03:30N 52°47' W 005°42'612.2
2018-Feb-22 03:00N 52°53' W 005°40'611.8
2018-Feb-22 02:30N 52°59' W 005°39'610.7
2018-Feb-22 01:59N 53°04' W 005°37'510.3
2018-Feb-22 01:28N 53°09' W 005°36'510.0
2018-Feb-22 00:59N 53°14' W 005°35'510.2
2018-Feb-22 00:30N 53°19' W 005°34'5 9.9
2018-Feb-22 00:00N 53°24' W 005°33'3611.3
2018-Feb-21 20:49N 53°59' W 005°18'412.1
2018-Feb-21 20:29N 54°03' W 005°16'611.9
2018-Feb-21 20:00N 54°08' W 005°14'611.6
2018-Feb-21 19:30N 54°14' W 005°16'611.5
2018-Feb-21 19:00N 54°20' W 005°17'510.5
2018-Feb-21 18:30N 54°25' W 005°19'510.5
2018-Feb-21 18:00N 54°30' W 005°21'5 9.7
2018-Feb-21 17:30N 54°34' W 005°24'5 9.3
2018-Feb-21 17:00N 54°39' W 005°27'4 8.7
2018-Feb-21 16:30N 54°43' W 005°29'510.5
2018-Feb-21 16:00N 54°43' W 005°38'4 7.2
2018-Feb-21 15:30N 54°43' W 005°45'0 0.0
2018-Feb-21 14:59N 54°43' W 005°45'0 0.0
2018-Feb-21 14:29N 54°43' W 005°45'0 0.0
2018-Feb-21 13:59N 54°43' W 005°45'0 0.0
2018-Feb-21 13:29N 54°43' W 005°45'0 0.0
2018-Feb-21 12:59N 54°43' W 005°45'0 0.0
2018-Feb-21 12:29N 54°43' W 005°45'0 0.0
2018-Feb-21 11:59N 54°43' W 005°45'0 0.0
2018-Feb-21 11:29N 54°43' W 005°45'0 0.0
2018-Feb-21 10:59N 54°43' W 005°45'0 0.0
2018-Feb-21 10:29N 54°43' W 005°45'0 0.0
2018-Feb-21 09:59N 54°43' W 005°45'0 0.0
2018-Feb-21 09:29N 54°43' W 005°45'0 0.0
2018-Feb-21 08:59N 54°43' W 005°45'0 0.0
2018-Feb-21 08:29N 54°43' W 005°45'0 0.0
2018-Feb-21 07:59N 54°43' W 005°45'0 0.0
2018-Feb-21 07:26N 54°43' W 005°45'0 0.0
2018-Feb-21 06:53N 54°43' W 005°45'0 0.0
2018-Feb-21 06:26N 54°43' W 005°45'0 1.0
2018-Feb-21 06:00N 54°43' W 005°44'0 0.7
2018-Feb-21 05:29N 54°43' W 005°44'0 0.1
2018-Feb-21 04:59N 54°43' W 005°44'0 0.0
2018-Feb-21 04:29N 54°43' W 005°44'0 0.0
2018-Feb-21 03:59N 54°43' W 005°44'0 0.1
2018-Feb-21 03:29N 54°43' W 005°44'0 0.1
2018-Feb-21 02:59N 54°43' W 005°44'0 0.1
2018-Feb-21 02:29N 54°43' W 005°44'0 0.0
2018-Feb-21 01:59N 54°43' W 005°44'0 0.0
2018-Feb-21 01:29N 54°43' W 005°44'0 0.0
2018-Feb-21 00:59N 54°43' W 005°44'0 0.1
2018-Feb-21 00:29N 54°43' W 005°44'0 0.0
2018-Feb-20 23:59N 54°43' W 005°44'1 1.9
2018-Feb-20 23:30N 54°43' W 005°42'611.8
2018-Feb-20 23:00N 54°43' W 005°32'4 8.1
2018-Feb-20 22:30N 54°40' W 005°27'5 9.8
2018-Feb-20 22:00N 54°35' W 005°25'510.7
2018-Feb-20 21:31N 54°30' W 005°22'510.9
2018-Feb-20 21:00N 54°25' W 005°19'711.8
2018-Feb-20 20:26N 54°19' W 005°26'612.0
2018-Feb-20 19:55N 54°14' W 005°32'612.0
2018-Feb-20 19:24N 54°10' W 005°40'512.1
2018-Feb-20 19:00N 54°07' W 005°46'1011.8
2018-Feb-20 18:11N 54°01' W 005°59'210.6
2018-Feb-20 18:00N 54°00' W 006°02'612.5
2018-Feb-20 17:30N 54°04' W 006°11'4 5.3
2018-Feb-20 16:49N 54°06' W 006°16'0 0.0
2018-Feb-20 16:15N 54°06' W 006°16'0 0.0
2018-Feb-18 22:46N 54°06' W 006°16'1 3.3
2018-Feb-18 22:29N 54°05' W 006°14'611.6
2018-Feb-18 22:00N 54°02' W 006°07'4 8.1
2018-Feb-18 21:30N 53°60' W 006°01'0 1.0
2018-Feb-18 21:00N 53°60' W 006°00'0 0.4
2018-Feb-18 20:30N 53°60' W 005°60'0 0.0
2018-Feb-18 20:00N 53°60' W 005°60'0 0.0
2018-Feb-18 19:30N 53°60' W 005°60'0 0.0
2018-Feb-18 19:00N 53°60' W 005°60'0 0.0
2018-Feb-18 18:30N 53°60' W 005°60'0 0.0
2018-Feb-18 18:00N 53°60' W 005°60'0 0.0
2018-Feb-18 17:30N 53°60' W 005°60'0 0.0
2018-Feb-18 17:00N 53°60' W 005°60'0 0.0
2018-Feb-18 16:30N 53°60' W 005°60'0 0.0
2018-Feb-18 15:57N 53°60' W 005°60'0 0.0
2018-Feb-18 15:27N 53°60' W 005°60'0 0.0
2018-Feb-18 15:00N 53°60' W 005°60'0 0.0
2018-Feb-18 14:30N 53°60' W 006°00'0 0.0
2018-Feb-18 14:00N 53°60' W 006°00'0 0.0
2018-Feb-18 13:27N 53°60' W 006°00'0 0.0
2018-Feb-18 13:00N 53°60' W 006°00'0 0.0
2018-Feb-18 12:30N 53°60' W 006°00'0 0.0
2018-Feb-18 12:00N 53°60' W 006°00'0 0.0
2018-Feb-18 11:29N 53°60' W 006°00'0 0.0
2018-Feb-18 11:00N 53°60' W 006°00'0 0.0
2018-Feb-18 10:30N 53°60' W 006°00'0 0.0
2018-Feb-18 10:00N 53°60' W 006°00'0 0.0
2018-Feb-18 09:30N 53°60' W 006°00'0 0.0
2018-Feb-18 09:00N 53°60' W 006°00'0 0.0
2018-Feb-18 08:30N 53°60' W 006°00'1 1.1
2018-Feb-18 08:00N 53°59' W 006°00'5 9.0
2018-Feb-18 07:30N 53°55' W 005°60'611.8
2018-Feb-18 07:00N 53°49' W 005°57'1011.6
2018-Feb-18 06:08N 53°39' W 005°53'1611.1
2018-Feb-18 04:42N 53°24' W 005°47'310.4
2018-Feb-18 04:24N 53°21' W 005°46'410.1
2018-Feb-18 04:00N 53°17' W 005°45'5 9.9
2018-Feb-18 03:30N 53°12' W 005°42'5 9.6
2018-Feb-18 03:00N 53°07' W 005°41'5 8.4
2018-Feb-18 02:27N 53°03' W 005°42'4 9.0
2018-Feb-18 01:59N 52°59' W 005°42'5 9.4
2018-Feb-18 01:30N 52°54' W 005°42'610.6
2018-Feb-18 00:56N 52°48' W 005°42'7413.1
2018-Feb-17 19:15N 51°34' W 005°50'412.6
2018-Feb-17 18:57N 51°30' W 005°51'2612.1
2018-Feb-17 16:49N 51°04' W 005°51'511.8
2018-Feb-17 16:26N 50°60' W 005°51'512.0
2018-Feb-17 15:59N 50°54' W 005°51'1312.0
2018-Feb-17 14:54N 50°41' W 005°52'511.9
2018-Feb-17 14:30N 50°36' W 005°52'611.9
2018-Feb-17 14:00N 50°31' W 005°52'611.9
2018-Feb-17 13:30N 50°25' W 005°52'611.7
2018-Feb-17 13:00N 50°19' W 005°52'611.7
2018-Feb-17 12:30N 50°13' W 005°52'1011.5
2018-Feb-17 11:38N 50°03' W 005°52'211.1
2018-Feb-17 11:25N 50°01' W 005°52'1211.5
2018-Feb-17 10:24N 49°58' W 005°34'511.5
2018-Feb-17 10:00N 49°57' W 005°27'711.7
2018-Feb-17 09:24N 49°56' W 005°16'512.8
2018-Feb-17 08:59N 49°56' W 005°08'611.3
2018-Feb-17 08:30N 49°57' W 004°60'510.9
2018-Feb-17 08:00N 49°57' W 004°51'510.4
2018-Feb-17 07:30N 49°58' W 004°44'510.2
2018-Feb-17 07:00N 49°59' W 004°36'510.0
2018-Feb-17 06:30N 50°00' W 004°28'5 9.9
2018-Feb-17 06:00N 50°01' W 004°21'510.0
2018-Feb-17 05:30N 50°02' W 004°13'510.2
2018-Feb-17 05:00N 50°03' W 004°05'510.6
2018-Feb-17 04:30N 50°04' W 003°57'611.1
2018-Feb-17 04:00N 50°05' W 003°49'611.9
2018-Feb-17 03:30N 50°06' W 003°39'612.7
2018-Feb-17 03:00N 50°07' W 003°30'613.0
2018-Feb-17 02:30N 50°08' W 003°20'713.1
2018-Feb-17 02:00N 50°10' W 003°10'713.1
2018-Feb-17 01:30N 50°11' W 002°60'713.0
2018-Feb-17 01:00N 50°12' W 002°50'712.7
2018-Feb-17 00:29N 50°14' W 002°40'612.1
2018-Feb-16 23:59N 50°15' W 002°30'43 9.2
2018-Feb-16 19:17N 50°22' W 001°24'3 9.3
2018-Feb-16 19:00N 50°23' W 001°19'510.1
2018-Feb-16 18:28N 50°24' W 001°11'1311.7
2018-Feb-16 17:20N 50°26' W 000°51'713.4
2018-Feb-16 16:50N 50°28' W 000°40'413.8
2018-Feb-16 16:30N 50°29' W 000°34'713.7
2018-Feb-16 16:00N 50°30' W 000°23'713.5
2018-Feb-16 15:30N 50°31' W 000°13'713.3
2018-Feb-16 15:00N 50°33' W 000°02'713.1
2018-Feb-16 14:30N 50°34' E 000°08'612.9
2018-Feb-16 14:00N 50°36' E 000°17'612.6
2018-Feb-16 13:30N 50°38' E 000°27'612.1
2018-Feb-16 13:00N 50°39' E 000°36'611.7
2018-Feb-16 12:30N 50°43' E 000°44'611.1
2018-Feb-16 12:00N 50°46' E 000°51'510.8
2018-Feb-16 11:30N 50°49' E 000°58'510.7
2018-Feb-16 11:00N 50°52' E 001°05'610.9
2018-Feb-16 10:30N 50°56' E 001°12'611.4
2018-Feb-16 09:59N 50°59' E 001°19'612.6
2018-Feb-16 09:30N 51°03' E 001°26'714.3
2018-Feb-16 09:00N 51°08' E 001°35'714.6
2018-Feb-16 08:30N 51°13' E 001°43'714.3
2018-Feb-16 08:00N 51°19' E 001°50'713.7
2018-Feb-16 07:31N 51°25' E 001°55'612.8
2018-Feb-16 07:00N 51°30' E 002°00'612.0
2018-Feb-16 06:30N 51°35' E 002°07'611.7
2018-Feb-16 06:00N 51°39' E 002°13'362 7.8
2018-Feb-14 07:29N 56°42' E 007°53'  
Track history (hours):
 
Tides and Currents Weather Stations Pressure Air Temp Water Temp Dewpoint Dewpoint Depression Visibility Wind Speed Wind Dir Waves Ship Positions

Celtic Warrior

Last reported at 2018-Feb-24 03:16 UTC. Time now 2018-Feb-24 04:26 UTC.
Position N 51°22' W 003°36'.

Length 89 m; draft 3.8 m.

Type: Cargo ship. MMSI: 235108405.

Date/timePositionNaut miles runAvg speedWind from/ knotsBaromVisibWave heightAir tempDewpointWater temp
2018-Feb-24 03:16N 51°22' W 003°36'1014.3
2018-Feb-24 02:35N 51°20' W 003°20'112.6
2018-Feb-24 02:29N 51°20' W 003°18'612.4
2018-Feb-24 02:00N 51°23' W 003°11'714.4
2018-Feb-24 01:30N 51°26' W 003°00'713.7
2018-Feb-24 01:00N 51°29' W 002°50'5 9.3
2018-Feb-24 00:30N 51°30' W 002°43'0 0.4
2018-Feb-23 23:30N 51°30' W 002°42'0 0.0
2018-Feb-23 22:58N 51°30' W 002°42'0 0.0
2018-Feb-23 22:28N 51°30' W 002°42'0 0.0
2018-Feb-23 21:58N 51°30' W 002°42'0 0.0
2018-Feb-23 21:28N 51°30' W 002°42'0 0.0
2018-Feb-23 20:58N 51°30' W 002°42'0 0.0
2018-Feb-23 20:28N 51°30' W 002°42'0 0.0
2018-Feb-23 19:58N 51°30' W 002°42'0 0.0
2018-Feb-23 19:28N 51°30' W 002°42'0 0.0
2018-Feb-23 19:01N 51°30' W 002°42'0 0.0
2018-Feb-23 18:31N 51°30' W 002°42'0 0.0
2018-Feb-23 18:00N 51°30' W 002°42'0 0.0
2018-Feb-23 17:30N 51°30' W 002°42'0 0.0
2018-Feb-23 17:00N 51°30' W 002°42'0 0.0
2018-Feb-23 16:30N 51°30' W 002°42'0 0.0
2018-Feb-23 16:00N 51°30' W 002°42'0 0.0
2018-Feb-23 15:30N 51°30' W 002°42'0 0.0
2018-Feb-23 15:00N 51°30' W 002°42'0 0.0
2018-Feb-23 14:30N 51°30' W 002°42'0 0.0
2018-Feb-23 14:00N 51°30' W 002°42'0 0.0
2018-Feb-23 13:30N 51°30' W 002°42'0 0.0
2018-Feb-23 13:00N 51°30' W 002°42'0 0.0
2018-Feb-23 12:30N 51°30' W 002°42'0 0.0
2018-Feb-23 12:00N 51°30' W 002°42'0 0.0
2018-Feb-23 11:30N 51°30' W 002°42'0 0.0
2018-Feb-23 10:57N 51°30' W 002°42'0 0.0
2018-Feb-23 10:30N 51°30' W 002°42'0 0.0
2018-Feb-23 10:00N 51°30' W 002°42'0 0.0
2018-Feb-23 09:30N 51°30' W 002°42'0 0.0
2018-Feb-23 09:00N 51°30' W 002°42'0 0.0
2018-Feb-23 08:27N 51°30' W 002°42'0 0.0
2018-Feb-23 08:00N 51°30' W 002°42'0 0.0
2018-Feb-23 07:30N 51°30' W 002°42'0 0.0
2018-Feb-23 07:00N 51°30' W 002°42'0 0.0
2018-Feb-23 06:27N 51°30' W 002°42'0 0.0
2018-Feb-23 06:00N 51°30' W 002°42'0 0.0
2018-Feb-23 05:30N 51°30' W 002°42'0 0.0
2018-Feb-23 05:00N 51°30' W 002°42'0 0.0
2018-Feb-23 04:30N 51°30' W 002°42'0 0.0
2018-Feb-23 04:00N 51°30' W 002°42'0 0.0
2018-Feb-23 03:30N 51°30' W 002°42'0 0.0
2018-Feb-23 03:00N 51°30' W 002°42'0 0.0
2018-Feb-23 02:30N 51°30' W 002°42'0 0.0
2018-Feb-23 02:00N 51°30' W 002°42'0 0.0
2018-Feb-23 01:27N 51°30' W 002°42'0 0.0
2018-Feb-23 01:00N 51°30' W 002°42'0 0.0
2018-Feb-23 00:30N 51°30' W 002°42'0 0.0
2018-Feb-23 00:00N 51°30' W 002°42'0 0.0
2018-Feb-22 23:30N 51°30' W 002°42'0 0.0
2018-Feb-22 23:00N 51°30' W 002°42'0 0.0
2018-Feb-22 22:30N 51°30' W 002°42'0 0.0
2018-Feb-22 22:00N 51°30' W 002°42'0 0.7
2018-Feb-22 21:30N 51°30' W 002°43'0 0.7
2018-Feb-22 21:00N 51°30' W 002°43'5 9.1
2018-Feb-22 20:31N 51°29' W 002°50'714.0
2018-Feb-22 20:01N 51°26' W 003°00'714.2
2018-Feb-22 19:30N 51°21' W 003°09'4 8.2
2018-Feb-22 18:59N 51°21' W 003°16'2 3.1
2018-Feb-22 18:29N 51°21' W 003°18'5 9.5
2018-Feb-22 17:57N 51°22' W 003°26'612.4
2018-Feb-22 17:29N 51°22' W 003°35'712.0
2018-Feb-22 16:56N 51°23' W 003°46'611.3
2018-Feb-22 16:25N 51°24' W 003°55'2210.2
2018-Feb-22 14:16N 51°27' W 004°30'4 8.8
2018-Feb-22 13:51N 51°28' W 004°36'9 9.3
2018-Feb-22 12:50N 51°29' W 004°51'3 9.9
2018-Feb-22 12:30N 51°30' W 004°56'5 9.9
2018-Feb-22 12:00N 51°31' W 005°04'5 9.9
2018-Feb-22 11:30N 51°32' W 005°12'510.1
2018-Feb-22 11:00N 51°33' W 005°19'69 9.8
2018-Feb-22 03:58N 52°41' W 005°43'612.6
2018-Feb-22 03:30N 52°47' W 005°42'612.2
2018-Feb-22 03:00N 52°53' W 005°40'611.8
2018-Feb-22 02:30N 52°59' W 005°39'610.7
2018-Feb-22 01:59N 53°04' W 005°37'510.3
2018-Feb-22 01:28N 53°09' W 005°36'510.0
2018-Feb-22 00:59N 53°14' W 005°35'510.2
2018-Feb-22 00:30N 53°19' W 005°34'5 9.9
2018-Feb-22 00:00N 53°24' W 005°33'3611.3
2018-Feb-21 20:49N 53°59' W 005°18'412.1
2018-Feb-21 20:29N 54°03' W 005°16'611.9
2018-Feb-21 20:00N 54°08' W 005°14'611.6
2018-Feb-21 19:30N 54°14' W 005°16'611.5
2018-Feb-21 19:00N 54°20' W 005°17'510.5
2018-Feb-21 18:30N 54°25' W 005°19'510.5
2018-Feb-21 18:00N 54°30' W 005°21'5 9.7
2018-Feb-21 17:30N 54°34' W 005°24'5 9.3
2018-Feb-21 17:00N 54°39' W 005°27'4 8.7
2018-Feb-21 16:30N 54°43' W 005°29'510.5
2018-Feb-21 16:00N 54°43' W 005°38'4 7.2
2018-Feb-21 15:30N 54°43' W 005°45'0 0.0
2018-Feb-21 14:59N 54°43' W 005°45'0 0.0
2018-Feb-21 14:29N 54°43' W 005°45'0 0.0
2018-Feb-21 13:59N 54°43' W 005°45'0 0.0
2018-Feb-21 13:29N 54°43' W 005°45'0 0.0
2018-Feb-21 12:59N 54°43' W 005°45'0 0.0
2018-Feb-21 12:29N 54°43' W 005°45'0 0.0
2018-Feb-21 11:59N 54°43' W 005°45'0 0.0
2018-Feb-21 11:29N 54°43' W 005°45'0 0.0
2018-Feb-21 10:59N 54°43' W 005°45'0 0.0
2018-Feb-21 10:29N 54°43' W 005°45'0 0.0
2018-Feb-21 09:59N 54°43' W 005°45'0 0.0
2018-Feb-21 09:29N 54°43' W 005°45'0 0.0
2018-Feb-21 08:59N 54°43' W 005°45'0 0.0
2018-Feb-21 08:29N 54°43' W 005°45'0 0.0
2018-Feb-21 07:59N 54°43' W 005°45'0 0.0
2018-Feb-21 07:26N 54°43' W 005°45'0 0.0
2018-Feb-21 06:53N 54°43' W 005°45'0 0.0
2018-Feb-21 06:26N 54°43' W 005°45'0 1.0
2018-Feb-21 06:00N 54°43' W 005°44'0 0.7
2018-Feb-21 05:29N 54°43' W 005°44'0 0.1
2018-Feb-21 04:59N 54°43' W 005°44'0 0.0
2018-Feb-21 04:29N 54°43' W 005°44'0 0.0
2018-Feb-21 03:59N 54°43' W 005°44'0 0.1
2018-Feb-21 03:29N 54°43' W 005°44'0 0.1
2018-Feb-21 02:59N 54°43' W 005°44'0 0.1
2018-Feb-21 02:29N 54°43' W 005°44'0 0.0
2018-Feb-21 01:59N 54°43' W 005°44'0 0.0
2018-Feb-21 01:29N 54°43' W 005°44'0 0.0
2018-Feb-21 00:59N 54°43' W 005°44'0 0.1
2018-Feb-21 00:29N 54°43' W 005°44'0 0.0
2018-Feb-20 23:59N 54°43' W 005°44'1 1.9
2018-Feb-20 23:30N 54°43' W 005°42'611.8
2018-Feb-20 23:00N 54°43' W 005°32'4 8.1
2018-Feb-20 22:30N 54°40' W 005°27'5 9.8
2018-Feb-20 22:00N 54°35' W 005°25'510.7
2018-Feb-20 21:31N 54°30' W 005°22'510.9
2018-Feb-20 21:00N 54°25' W 005°19'711.8
2018-Feb-20 20:26N 54°19' W 005°26'612.0
2018-Feb-20 19:55N 54°14' W 005°32'612.0
2018-Feb-20 19:24N 54°10' W 005°40'512.1
2018-Feb-20 19:00N 54°07' W 005°46'1011.8
2018-Feb-20 18:11N 54°01' W 005°59'210.6
2018-Feb-20 18:00N 54°00' W 006°02'612.5
2018-Feb-20 17:30N 54°04' W 006°11'4 5.3
2018-Feb-20 16:49N 54°06' W 006°16'0 0.0
2018-Feb-20 16:15N 54°06' W 006°16'0 0.0
2018-Feb-18 22:46N 54°06' W 006°16'1 3.3
2018-Feb-18 22:29N 54°05' W 006°14'611.6
2018-Feb-18 22:00N 54°02' W 006°07'4 8.1
2018-Feb-18 21:30N 53°60' W 006°01'0 1.0
2018-Feb-18 21:00N 53°60' W 006°00'0 0.4
2018-Feb-18 20:30N 53°60' W 005°60'0 0.0
2018-Feb-18 20:00N 53°60' W 005°60'0 0.0
2018-Feb-18 19:30N 53°60' W 005°60'0 0.0
2018-Feb-18 19:00N 53°60' W 005°60'0 0.0
2018-Feb-18 18:30N 53°60' W 005°60'0 0.0
2018-Feb-18 18:00N 53°60' W 005°60'0 0.0
2018-Feb-18 17:30N 53°60' W 005°60'0 0.0
2018-Feb-18 17:00N 53°60' W 005°60'0 0.0
2018-Feb-18 16:30N 53°60' W 005°60'0 0.0
2018-Feb-18 15:57N 53°60' W 005°60'0 0.0
2018-Feb-18 15:27N 53°60' W 005°60'0 0.0
2018-Feb-18 15:00N 53°60' W 005°60'0 0.0
2018-Feb-18 14:30N 53°60' W 006°00'0 0.0
2018-Feb-18 14:00N 53°60' W 006°00'0 0.0
2018-Feb-18 13:27N 53°60' W 006°00'0 0.0
2018-Feb-18 13:00N 53°60' W 006°00'0 0.0
2018-Feb-18 12:30N 53°60' W 006°00'0 0.0
2018-Feb-18 12:00N 53°60' W 006°00'0 0.0
2018-Feb-18 11:29N 53°60' W 006°00'0 0.0
2018-Feb-18 11:00N 53°60' W 006°00'0 0.0
2018-Feb-18 10:30N 53°60' W 006°00'0 0.0
2018-Feb-18 10:00N 53°60' W 006°00'0 0.0
2018-Feb-18 09:30N 53°60' W 006°00'0 0.0
2018-Feb-18 09:00N 53°60' W 006°00'0 0.0
2018-Feb-18 08:30N 53°60' W 006°00'1 1.1
2018-Feb-18 08:00N 53°59' W 006°00'5 9.0
2018-Feb-18 07:30N 53°55' W 005°60'611.8
2018-Feb-18 07:00N 53°49' W 005°57'1011.6
2018-Feb-18 06:08N 53°39' W 005°53'1611.1
2018-Feb-18 04:42N 53°24' W 005°47'310.4
2018-Feb-18 04:24N 53°21' W 005°46'410.1
2018-Feb-18 04:00N 53°17' W 005°45'5 9.9
2018-Feb-18 03:30N 53°12' W 005°42'5 9.6
2018-Feb-18 03:00N 53°07' W 005°41'5 8.4
2018-Feb-18 02:27N 53°03' W 005°42'4 9.0
2018-Feb-18 01:59N 52°59' W 005°42'5 9.4
2018-Feb-18 01:30N 52°54' W 005°42'610.6
2018-Feb-18 00:56N 52°48' W 005°42'7413.1
2018-Feb-17 19:15N 51°34' W 005°50'412.6
2018-Feb-17 18:57N 51°30' W 005°51'2612.1
2018-Feb-17 16:49N 51°04' W 005°51'511.8
2018-Feb-17 16:26N 50°60' W 005°51'512.0
2018-Feb-17 15:59N 50°54' W 005°51'1312.0
2018-Feb-17 14:54N 50°41' W 005°52'511.9
2018-Feb-17 14:30N 50°36' W 005°52'611.9
2018-Feb-17 14:00N 50°31' W 005°52'611.9
2018-Feb-17 13:30N 50°25' W 005°52'611.7
2018-Feb-17 13:00N 50°19' W 005°52'611.7
2018-Feb-17 12:30N 50°13' W 005°52'1011.5
2018-Feb-17 11:38N 50°03' W 005°52'211.1
2018-Feb-17 11:25N 50°01' W 005°52'1211.5
2018-Feb-17 10:24N 49°58' W 005°34'511.5
2018-Feb-17 10:00N 49°57' W 005°27'711.7
2018-Feb-17 09:24N 49°56' W 005°16'512.8
2018-Feb-17 08:59N 49°56' W 005°08'611.3
2018-Feb-17 08:30N 49°57' W 004°60'510.9
2018-Feb-17 08:00N 49°57' W 004°51'510.4
2018-Feb-17 07:30N 49°58' W 004°44'510.2
2018-Feb-17 07:00N 49°59' W 004°36'510.0
2018-Feb-17 06:30N 50°00' W 004°28'5 9.9
2018-Feb-17 06:00N 50°01' W 004°21'510.0
2018-Feb-17 05:30N 50°02' W 004°13'510.2
2018-Feb-17 05:00N 50°03' W 004°05'510.6
2018-Feb-17 04:30N 50°04' W 003°57'611.1
2018-Feb-17 04:00N 50°05' W 003°49'611.9
2018-Feb-17 03:30N 50°06' W 003°39'612.7
2018-Feb-17 03:00N 50°07' W 003°30'613.0
2018-Feb-17 02:30N 50°08' W 003°20'713.1
2018-Feb-17 02:00N 50°10' W 003°10'713.1
2018-Feb-17 01:30N 50°11' W 002°60'713.0
2018-Feb-17 01:00N 50°12' W 002°50'712.7
2018-Feb-17 00:29N 50°14' W 002°40'612.1
2018-Feb-16 23:59N 50°15' W 002°30'43 9.2
2018-Feb-16 19:17N 50°22' W 001°24'3 9.3
2018-Feb-16 19:00N 50°23' W 001°19'510.1
2018-Feb-16 18:28N 50°24' W 001°11'1311.7
2018-Feb-16 17:20N 50°26' W 000°51'713.4
2018-Feb-16 16:50N 50°28' W 000°40'413.8
2018-Feb-16 16:30N 50°29' W 000°34'713.7
2018-Feb-16 16:00N 50°30' W 000°23'713.5
2018-Feb-16 15:30N 50°31' W 000°13'713.3
2018-Feb-16 15:00N 50°33' W 000°02'713.1
2018-Feb-16 14:30N 50°34' E 000°08'612.9
2018-Feb-16 14:00N 50°36' E 000°17'612.6
2018-Feb-16 13:30N 50°38' E 000°27'612.1
2018-Feb-16 13:00N 50°39' E 000°36'611.7
2018-Feb-16 12:30N 50°43' E 000°44'611.1
2018-Feb-16 12:00N 50°46' E 000°51'510.8
2018-Feb-16 11:30N 50°49' E 000°58'510.7
2018-Feb-16 11:00N 50°52' E 001°05'610.9
2018-Feb-16 10:30N 50°56' E 001°12'611.4
2018-Feb-16 09:59N 50°59' E 001°19'612.6
2018-Feb-16 09:30N 51°03' E 001°26'714.3
2018-Feb-16 09:00N 51°08' E 001°35'714.6
2018-Feb-16 08:30N 51°13' E 001°43'714.3
2018-Feb-16 08:00N 51°19' E 001°50'713.7
2018-Feb-16 07:31N 51°25' E 001°55'612.8
2018-Feb-16 07:00N 51°30' E 002°00'612.0
2018-Feb-16 06:30N 51°35' E 002°07'611.7
2018-Feb-16 06:00N 51°39' E 002°13'362 7.8
2018-Feb-14 07:29N 56°42' E 007°53'  

Dump ship's entire track history